sensor_id;sensor_type;location;lat;lon;timestamp;P1;durP1;ratioP1;P2;durP2;ratioP2
23539;SDS011;11947;50.810;4.394;2023-03-23T00:01:12;8.05;;;4.47;;
23539;SDS011;11947;50.810;4.394;2023-03-23T00:03:39;8.88;;;4.60;;
23539;SDS011;11947;50.810;4.394;2023-03-23T00:06:06;7.20;;;4.50;;
23539;SDS011;11947;50.810;4.394;2023-03-23T00:08:35;9.40;;;4.82;;
23539;SDS011;11947;50.810;4.394;2023-03-23T00:11:05;9.23;;;4.55;;
23539;SDS011;11947;50.810;4.394;2023-03-23T00:13:31;11.73;;;5.03;;
23539;SDS011;11947;50.810;4.394;2023-03-23T00:15:57;8.73;;;4.63;;
23539;SDS011;11947;50.810;4.394;2023-03-23T00:18:23;7.50;;;4.35;;
23539;SDS011;11947;50.810;4.394;2023-03-23T00:20:54;8.32;;;4.35;;
23539;SDS011;11947;50.810;4.394;2023-03-23T00:23:22;6.97;;;4.25;;
23539;SDS011;11947;50.810;4.394;2023-03-23T00:25:55;8.20;;;4.10;;
23539;SDS011;11947;50.810;4.394;2023-03-23T00:28:24;7.35;;;4.30;;
23539;SDS011;11947;50.810;4.394;2023-03-23T00:30:58;9.27;;;4.43;;
23539;SDS011;11947;50.810;4.394;2023-03-23T00:33:32;6.47;;;4.10;;
23539;SDS011;11947;50.810;4.394;2023-03-23T00:36:02;8.95;;;4.43;;
23539;SDS011;11947;50.810;4.394;2023-03-23T00:38:28;9.15;;;4.30;;
23539;SDS011;11947;50.810;4.394;2023-03-23T00:40:54;12.18;;;4.55;;
23539;SDS011;11947;50.810;4.394;2023-03-23T00:43:22;8.23;;;4.47;;
23539;SDS011;11947;50.810;4.394;2023-03-23T00:45:49;7.47;;;4.43;;
23539;SDS011;11947;50.810;4.394;2023-03-23T00:48:22;8.48;;;4.28;;
23539;SDS011;11947;50.810;4.394;2023-03-23T00:50:49;8.25;;;4.68;;
23539;SDS011;11947;50.810;4.394;2023-03-23T00:53:16;10.65;;;4.60;;
23539;SDS011;11947;50.810;4.394;2023-03-23T00:55:42;8.38;;;4.15;;
23539;SDS011;11947;50.810;4.394;2023-03-23T00:58:12;5.75;;;3.80;;
23539;SDS011;11947;50.810;4.394;2023-03-23T01:00:38;8.75;;;4.50;;
23539;SDS011;11947;50.810;4.394;2023-03-23T01:03:05;7.63;;;4.30;;
23539;SDS011;11947;50.810;4.394;2023-03-23T01:05:35;6.30;;;3.97;;
23539;SDS011;11947;50.810;4.394;2023-03-23T01:08:01;7.38;;;4.38;;
23539;SDS011;11947;50.810;4.394;2023-03-23T01:10:27;7.25;;;4.47;;
23539;SDS011;11947;50.810;4.394;2023-03-23T01:12:54;7.30;;;4.40;;
23539;SDS011;11947;50.810;4.394;2023-03-23T01:15:20;7.50;;;4.55;;
23539;SDS011;11947;50.810;4.394;2023-03-23T01:17:46;7.75;;;4.45;;
23539;SDS011;11947;50.810;4.394;2023-03-23T01:20:12;9.00;;;4.65;;
23539;SDS011;11947;50.810;4.394;2023-03-23T01:22:40;7.45;;;4.75;;
23539;SDS011;11947;50.810;4.394;2023-03-23T01:25:07;8.25;;;4.95;;
23539;SDS011;11947;50.810;4.394;2023-03-23T01:27:34;6.97;;;4.38;;
23539;SDS011;11947;50.810;4.394;2023-03-23T01:30:00;7.85;;;4.55;;
23539;SDS011;11947;50.810;4.394;2023-03-23T01:32:26;7.28;;;4.07;;
23539;SDS011;11947;50.810;4.394;2023-03-23T01:34:52;7.80;;;4.38;;
23539;SDS011;11947;50.810;4.394;2023-03-23T01:37:17;7.22;;;3.65;;
23539;SDS011;11947;50.810;4.394;2023-03-23T01:39:44;7.20;;;4.10;;
23539;SDS011;11947;50.810;4.394;2023-03-23T01:42:10;8.18;;;4.10;;
23539;SDS011;11947;50.810;4.394;2023-03-23T01:47:03;6.40;;;4.07;;
23539;SDS011;11947;50.810;4.394;2023-03-23T01:49:46;11.80;;;4.22;;
23539;SDS011;11947;50.810;4.394;2023-03-23T01:52:16;6.38;;;4.00;;
23539;SDS011;11947;50.810;4.394;2023-03-23T01:54:51;7.80;;;4.13;;
23539;SDS011;11947;50.810;4.394;2023-03-23T01:57:18;6.68;;;4.00;;
23539;SDS011;11947;50.810;4.394;2023-03-23T01:59:47;6.97;;;4.13;;
23539;SDS011;11947;50.810;4.394;2023-03-23T02:02:16;6.45;;;3.72;;
23539;SDS011;11947;50.810;4.394;2023-03-23T02:04:44;7.03;;;3.92;;
23539;SDS011;11947;50.810;4.394;2023-03-23T02:07:10;6.93;;;3.42;;
23539;SDS011;11947;50.810;4.394;2023-03-23T02:09:38;6.55;;;3.92;;
23539;SDS011;11947;50.810;4.394;2023-03-23T02:12:04;5.68;;;3.60;;
23539;SDS011;11947;50.810;4.394;2023-03-23T02:14:30;7.95;;;3.47;;
23539;SDS011;11947;50.810;4.394;2023-03-23T02:22:56;7.95;;;3.05;;
23539;SDS011;11947;50.810;4.394;2023-03-23T02:26:03;5.63;;;2.85;;
23539;SDS011;11947;50.810;4.394;2023-03-23T02:33:49;8.57;;;2.75;;
23539;SDS011;11947;50.810;4.394;2023-03-23T02:36:36;6.63;;;2.60;;
23539;SDS011;11947;50.810;4.394;2023-03-23T02:42:05;5.60;;;2.10;;
23539;SDS011;11947;50.810;4.394;2023-03-23T02:44:34;4.35;;;2.15;;
23539;SDS011;11947;50.810;4.394;2023-03-23T02:47:04;8.27;;;2.35;;
23539;SDS011;11947;50.810;4.394;2023-03-23T02:49:32;4.38;;;1.88;;
23539;SDS011;11947;50.810;4.394;2023-03-23T02:52:03;3.20;;;1.90;;
23539;SDS011;11947;50.810;4.394;2023-03-23T02:54:38;4.80;;;2.08;;
23539;SDS011;11947;50.810;4.394;2023-03-23T02:57:05;3.83;;;1.67;;
23539;SDS011;11947;50.810;4.394;2023-03-23T02:59:31;4.78;;;1.70;;
23539;SDS011;11947;50.810;4.394;2023-03-23T03:04:36;3.28;;;1.60;;
23539;SDS011;11947;50.810;4.394;2023-03-23T03:10:41;4.45;;;1.60;;
23539;SDS011;11947;50.810;4.394;2023-03-23T03:12:59;4.25;;;1.52;;
23539;SDS011;11947;50.810;4.394;2023-03-23T03:18:18;5.50;;;1.63;;
23539;SDS011;11947;50.810;4.394;2023-03-23T03:21:03;3.53;;;1.20;;
23539;SDS011;11947;50.810;4.394;2023-03-23T03:23:32;4.47;;;1.60;;
23539;SDS011;11947;50.810;4.394;2023-03-23T03:25:59;2.38;;;1.38;;
23539;SDS011;11947;50.810;4.394;2023-03-23T03:28:30;3.65;;;1.45;;
23539;SDS011;11947;50.810;4.394;2023-03-23T03:30:57;4.00;;;1.40;;
23539;SDS011;11947;50.810;4.394;2023-03-23T03:33:27;4.97;;;1.75;;
23539;SDS011;11947;50.810;4.394;2023-03-23T03:35:56;4.43;;;1.80;;
23539;SDS011;11947;50.810;4.394;2023-03-23T03:38:23;4.07;;;1.60;;
23539;SDS011;11947;50.810;4.394;2023-03-23T03:40:50;5.57;;;1.80;;
23539;SDS011;11947;50.810;4.394;2023-03-23T03:43:16;3.60;;;1.80;;
23539;SDS011;11947;50.810;4.394;2023-03-23T03:45:41;7.10;;;1.80;;
23539;SDS011;11947;50.810;4.394;2023-03-23T03:48:07;7.18;;;2.25;;
23539;SDS011;11947;50.810;4.394;2023-03-23T03:50:33;6.32;;;1.90;;
23539;SDS011;11947;50.810;4.394;2023-03-23T03:52:58;5.18;;;1.88;;
23539;SDS011;11947;50.810;4.394;2023-03-23T03:55:24;6.38;;;2.17;;
23539;SDS011;11947;50.810;4.394;2023-03-23T03:57:50;5.25;;;1.92;;
23539;SDS011;11947;50.810;4.394;2023-03-23T04:00:16;5.28;;;1.95;;
23539;SDS011;11947;50.810;4.394;2023-03-23T04:02:42;4.50;;;2.00;;
23539;SDS011;11947;50.810;4.394;2023-03-23T04:05:12;8.10;;;2.10;;
23539;SDS011;11947;50.810;4.394;2023-03-23T04:07:38;7.03;;;1.83;;
23539;SDS011;11947;50.810;4.394;2023-03-23T04:10:06;6.25;;;1.95;;
23539;SDS011;11947;50.810;4.394;2023-03-23T04:12:33;5.40;;;1.75;;
23539;SDS011;11947;50.810;4.394;2023-03-23T04:14:59;6.47;;;1.67;;
23539;SDS011;11947;50.810;4.394;2023-03-23T04:17:25;6.22;;;1.48;;
23539;SDS011;11947;50.810;4.394;2023-03-23T04:19:51;4.93;;;1.40;;
23539;SDS011;11947;50.810;4.394;2023-03-23T04:22:17;5.57;;;1.58;;
23539;SDS011;11947;50.810;4.394;2023-03-23T04:24:43;4.05;;;1.30;;
23539;SDS011;11947;50.810;4.394;2023-03-23T04:27:08;7.88;;;1.50;;
23539;SDS011;11947;50.810;4.394;2023-03-23T04:29:34;6.35;;;1.35;;
23539;SDS011;11947;50.810;4.394;2023-03-23T04:32:00;4.93;;;1.10;;
23539;SDS011;11947;50.810;4.394;2023-03-23T04:34:26;4.78;;;1.30;;
23539;SDS011;11947;50.810;4.394;2023-03-23T04:36:52;4.95;;;1.35;;
23539;SDS011;11947;50.810;4.394;2023-03-23T04:39:18;3.65;;;1.20;;
23539;SDS011;11947;50.810;4.394;2023-03-23T04:41:44;4.57;;;1.00;;
23539;SDS011;11947;50.810;4.394;2023-03-23T04:44:10;6.10;;;1.50;;
23539;SDS011;11947;50.810;4.394;2023-03-23T04:46:42;5.60;;;1.17;;
23539;SDS011;11947;50.810;4.394;2023-03-23T04:49:10;2.78;;;1.05;;
23539;SDS011;11947;50.810;4.394;2023-03-23T04:51:36;3.88;;;1.13;;
23539;SDS011;11947;50.810;4.394;2023-03-23T04:54:01;6.65;;;1.30;;
23539;SDS011;11947;50.810;4.394;2023-03-23T04:56:27;4.40;;;1.40;;
23539;SDS011;11947;50.810;4.394;2023-03-23T04:58:52;6.80;;;1.70;;
23539;SDS011;11947;50.810;4.394;2023-03-23T05:01:18;5.35;;;1.35;;
23539;SDS011;11947;50.810;4.394;2023-03-23T05:03:44;6.25;;;1.67;;
23539;SDS011;11947;50.810;4.394;2023-03-23T05:06:10;5.53;;;1.90;;
23539;SDS011;11947;50.810;4.394;2023-03-23T05:08:36;6.15;;;1.73;;
23539;SDS011;11947;50.810;4.394;2023-03-23T05:11:05;5.32;;;1.52;;
23539;SDS011;11947;50.810;4.394;2023-03-23T05:13:31;5.28;;;1.85;;
23539;SDS011;11947;50.810;4.394;2023-03-23T05:15:57;2.55;;;1.38;;
23539;SDS011;11947;50.810;4.394;2023-03-23T05:18:23;3.78;;;1.30;;
23539;SDS011;11947;50.810;4.394;2023-03-23T05:20:49;4.20;;;1.25;;
23539;SDS011;11947;50.810;4.394;2023-03-23T05:23:17;3.75;;;1.38;;
23539;SDS011;11947;50.810;4.394;2023-03-23T05:25:51;4.13;;;1.30;;
23539;SDS011;11947;50.810;4.394;2023-03-23T05:28:20;6.15;;;1.65;;
23539;SDS011;11947;50.810;4.394;2023-03-23T05:30:47;5.72;;;1.50;;
23539;SDS011;11947;50.810;4.394;2023-03-23T05:33:13;4.53;;;1.10;;
23539;SDS011;11947;50.810;4.394;2023-03-23T05:35:39;4.05;;;1.42;;
23539;SDS011;11947;50.810;4.394;2023-03-23T05:38:05;5.97;;;1.50;;
23539;SDS011;11947;50.810;4.394;2023-03-23T05:40:30;5.63;;;1.10;;
23539;SDS011;11947;50.810;4.394;2023-03-23T05:42:56;6.57;;;1.80;;
23539;SDS011;11947;50.810;4.394;2023-03-23T05:45:24;6.22;;;1.73;;
23539;SDS011;11947;50.810;4.394;2023-03-23T05:47:51;4.90;;;1.60;;
23539;SDS011;11947;50.810;4.394;2023-03-23T05:50:17;5.93;;;1.55;;
23539;SDS011;11947;50.810;4.394;2023-03-23T05:52:43;4.07;;;1.52;;
23539;SDS011;11947;50.810;4.394;2023-03-23T05:55:09;4.63;;;1.60;;
23539;SDS011;11947;50.810;4.394;2023-03-23T05:57:35;5.32;;;1.27;;
23539;SDS011;11947;50.810;4.394;2023-03-23T06:00:01;6.45;;;2.08;;
23539;SDS011;11947;50.810;4.394;2023-03-23T06:02:39;6.53;;;1.80;;
23539;SDS011;11947;50.810;4.394;2023-03-23T06:05:08;4.88;;;1.50;;
23539;SDS011;11947;50.810;4.394;2023-03-23T06:07:35;5.38;;;1.80;;
23539;SDS011;11947;50.810;4.394;2023-03-23T06:10:02;9.90;;;1.70;;
23539;SDS011;11947;50.810;4.394;2023-03-23T06:12:29;5.40;;;1.65;;
23539;SDS011;11947;50.810;4.394;2023-03-23T06:14:56;6.97;;;1.83;;
23539;SDS011;11947;50.810;4.394;2023-03-23T06:17:22;6.45;;;1.90;;
23539;SDS011;11947;50.810;4.394;2023-03-23T06:19:47;5.95;;;2.45;;
23539;SDS011;11947;50.810;4.394;2023-03-23T06:22:15;3.95;;;1.50;;
23539;SDS011;11947;50.810;4.394;2023-03-23T06:24:41;5.68;;;1.98;;
23539;SDS011;11947;50.810;4.394;2023-03-23T06:27:07;6.35;;;1.60;;
23539;SDS011;11947;50.810;4.394;2023-03-23T06:29:34;4.28;;;1.42;;
23539;SDS011;11947;50.810;4.394;2023-03-23T06:32:01;7.53;;;1.80;;
23539;SDS011;11947;50.810;4.394;2023-03-23T06:34:28;5.15;;;1.70;;
23539;SDS011;11947;50.810;4.394;2023-03-23T06:36:54;6.80;;;1.98;;
23539;SDS011;11947;50.810;4.394;2023-03-23T06:39:21;5.95;;;1.92;;
23539;SDS011;11947;50.810;4.394;2023-03-23T06:41:47;7.50;;;1.77;;
23539;SDS011;11947;50.810;4.394;2023-03-23T06:44:13;6.13;;;1.65;;
23539;SDS011;11947;50.810;4.394;2023-03-23T06:46:39;7.43;;;2.05;;
23539;SDS011;11947;50.810;4.394;2023-03-23T06:49:06;5.40;;;1.83;;
23539;SDS011;11947;50.810;4.394;2023-03-23T06:51:32;3.92;;;1.70;;
23539;SDS011;11947;50.810;4.394;2023-03-23T06:53:58;3.85;;;1.50;;
23539;SDS011;11947;50.810;4.394;2023-03-23T06:56:24;5.65;;;1.70;;
23539;SDS011;11947;50.810;4.394;2023-03-23T06:58:50;4.93;;;1.58;;
23539;SDS011;11947;50.810;4.394;2023-03-23T07:01:16;6.20;;;2.13;;
23539;SDS011;11947;50.810;4.394;2023-03-23T07:03:41;7.50;;;2.25;;
23539;SDS011;11947;50.810;4.394;2023-03-23T07:06:07;6.65;;;1.98;;
23539;SDS011;11947;50.810;4.394;2023-03-23T07:08:34;4.25;;;1.77;;
23539;SDS011;11947;50.810;4.394;2023-03-23T07:11:00;4.00;;;1.80;;
23539;SDS011;11947;50.810;4.394;2023-03-23T07:13:25;5.95;;;1.83;;
23539;SDS011;11947;50.810;4.394;2023-03-23T07:15:51;4.05;;;1.90;;
23539;SDS011;11947;50.810;4.394;2023-03-23T07:18:18;5.07;;;1.90;;
23539;SDS011;11947;50.810;4.394;2023-03-23T07:20:51;3.83;;;1.70;;
23539;SDS011;11947;50.810;4.394;2023-03-23T07:23:18;7.90;;;2.08;;
23539;SDS011;11947;50.810;4.394;2023-03-23T07:25:44;9.27;;;2.15;;
23539;SDS011;11947;50.810;4.394;2023-03-23T07:28:11;3.45;;;1.30;;
23539;SDS011;11947;50.810;4.394;2023-03-23T07:30:37;2.83;;;1.10;;
23539;SDS011;11947;50.810;4.394;2023-03-23T07:33:04;2.25;;;0.93;;
23539;SDS011;11947;50.810;4.394;2023-03-23T07:35:30;5.43;;;1.27;;
23539;SDS011;11947;50.810;4.394;2023-03-23T07:37:56;4.13;;;1.70;;
23539;SDS011;11947;50.810;4.394;2023-03-23T07:40:22;4.88;;;1.30;;
23539;SDS011;11947;50.810;4.394;2023-03-23T07:42:51;3.55;;;1.40;;
23539;SDS011;11947;50.810;4.394;2023-03-23T07:45:18;4.38;;;1.33;;
23539;SDS011;11947;50.810;4.394;2023-03-23T07:47:44;5.57;;;1.70;;
23539;SDS011;11947;50.810;4.394;2023-03-23T07:50:09;7.03;;;1.75;;
23539;SDS011;11947;50.810;4.394;2023-03-23T07:52:37;6.80;;;1.85;;
23539;SDS011;11947;50.810;4.394;2023-03-23T07:55:03;5.15;;;1.80;;
23539;SDS011;11947;50.810;4.394;2023-03-23T07:57:31;3.13;;;1.60;;
23539;SDS011;11947;50.810;4.394;2023-03-23T07:59:57;2.88;;;1.48;;
23539;SDS011;11947;50.810;4.394;2023-03-23T08:02:23;5.00;;;1.45;;
23539;SDS011;11947;50.810;4.394;2023-03-23T08:04:49;4.13;;;1.30;;
23539;SDS011;11947;50.810;4.394;2023-03-23T08:07:15;4.80;;;1.20;;
23539;SDS011;11947;50.810;4.394;2023-03-23T08:09:44;6.63;;;1.08;;
23539;SDS011;11947;50.810;4.394;2023-03-23T08:12:11;3.50;;;0.73;;
23539;SDS011;11947;50.810;4.394;2023-03-23T08:14:37;4.53;;;0.95;;
23539;SDS011;11947;50.810;4.394;2023-03-23T08:17:04;2.67;;;0.70;;
23539;SDS011;11947;50.810;4.394;2023-03-23T08:19:30;3.35;;;0.90;;
23539;SDS011;11947;50.810;4.394;2023-03-23T08:22:01;1.48;;;0.77;;
23539;SDS011;11947;50.810;4.394;2023-03-23T08:24:28;3.90;;;0.80;;
23539;SDS011;11947;50.810;4.394;2023-03-23T08:26:54;3.72;;;0.80;;
23539;SDS011;11947;50.810;4.394;2023-03-23T08:29:20;3.30;;;0.80;;
23539;SDS011;11947;50.810;4.394;2023-03-23T08:31:46;1.77;;;0.70;;
23539;SDS011;11947;50.810;4.394;2023-03-23T08:34:12;3.63;;;0.77;;
23539;SDS011;11947;50.810;4.394;2023-03-23T08:36:38;3.97;;;0.80;;
23539;SDS011;11947;50.810;4.394;2023-03-23T08:39:03;2.55;;;0.73;;
23539;SDS011;11947;50.810;4.394;2023-03-23T08:41:30;3.88;;;1.10;;
23539;SDS011;11947;50.810;4.394;2023-03-23T08:43:56;2.45;;;0.75;;
23539;SDS011;11947;50.810;4.394;2023-03-23T08:46:22;2.28;;;0.68;;
23539;SDS011;11947;50.810;4.394;2023-03-23T08:48:48;3.38;;;0.95;;
23539;SDS011;11947;50.810;4.394;2023-03-23T08:51:13;3.95;;;1.05;;
23539;SDS011;11947;50.810;4.394;2023-03-23T08:53:39;2.55;;;1.00;;
23539;SDS011;11947;50.810;4.394;2023-03-23T08:56:06;2.55;;;0.90;;
23539;SDS011;11947;50.810;4.394;2023-03-23T08:58:35;4.68;;;1.38;;
23539;SDS011;11947;50.810;4.394;2023-03-23T09:01:02;3.38;;;1.00;;
23539;SDS011;11947;50.810;4.394;2023-03-23T09:03:30;3.10;;;1.02;;
23539;SDS011;11947;50.810;4.394;2023-03-23T09:05:59;3.20;;;1.08;;
23539;SDS011;11947;50.810;4.394;2023-03-23T09:08:29;6.43;;;1.33;;
23539;SDS011;11947;50.810;4.394;2023-03-23T09:10:59;4.88;;;1.05;;
23539;SDS011;11947;50.810;4.394;2023-03-23T09:13:27;2.28;;;1.00;;
23539;SDS011;11947;50.810;4.394;2023-03-23T09:15:53;4.72;;;1.17;;
23539;SDS011;11947;50.810;4.394;2023-03-23T09:18:19;3.00;;;1.20;;
23539;SDS011;11947;50.810;4.394;2023-03-23T09:20:45;3.72;;;1.15;;
23539;SDS011;11947;50.810;4.394;2023-03-23T09:23:11;3.55;;;1.05;;
23539;SDS011;11947;50.810;4.394;2023-03-23T09:25:38;6.30;;;1.30;;
23539;SDS011;11947;50.810;4.394;2023-03-23T09:28:04;2.45;;;1.00;;
23539;SDS011;11947;50.810;4.394;2023-03-23T09:30:30;4.80;;;1.17;;
23539;SDS011;11947;50.810;4.394;2023-03-23T09:32:59;3.08;;;1.30;;
23539;SDS011;11947;50.810;4.394;2023-03-23T09:35:26;2.42;;;1.27;;
23539;SDS011;11947;50.810;4.394;2023-03-23T09:37:52;2.20;;;1.00;;
23539;SDS011;11947;50.810;4.394;2023-03-23T09:41:04;3.70;;;1.02;;
23539;SDS011;11947;50.810;4.394;2023-03-23T09:48:46;2.60;;;1.40;;
23539;SDS011;11947;50.810;4.394;2023-03-23T09:51:17;2.13;;;1.10;;
23539;SDS011;11947;50.810;4.394;2023-03-23T09:54:46;3.20;;;1.15;;
23539;SDS011;11947;50.810;4.394;2023-03-23T09:56:53;4.00;;;1.45;;
23539;SDS011;11947;50.810;4.394;2023-03-23T10:01:51;3.60;;;1.60;;
23539;SDS011;11947;50.810;4.394;2023-03-23T10:06:57;3.38;;;1.80;;
23539;SDS011;11947;50.810;4.394;2023-03-23T10:09:38;8.68;;;1.83;;
23539;SDS011;11947;50.810;4.394;2023-03-23T10:15:04;5.53;;;1.83;;
23539;SDS011;11947;50.810;4.394;2023-03-23T10:17:59;3.90;;;1.70;;
23539;SDS011;11947;50.810;4.394;2023-03-23T10:20:37;4.70;;;2.25;;
23539;SDS011;11947;50.810;4.394;2023-03-23T10:26:13;4.80;;;1.95;;
23539;SDS011;11947;50.810;4.394;2023-03-23T10:31:39;6.47;;;1.88;;
23539;SDS011;11947;50.810;4.394;2023-03-23T10:34:10;3.60;;;1.73;;
23539;SDS011;11947;50.810;4.394;2023-03-23T10:37:03;4.05;;;2.00;;
23539;SDS011;11947;50.810;4.394;2023-03-23T10:39:53;5.07;;;1.75;;
23539;SDS011;11947;50.810;4.394;2023-03-23T10:42:33;4.47;;;1.75;;
23539;SDS011;11947;50.810;4.394;2023-03-23T10:45:20;5.68;;;2.03;;
23539;SDS011;11947;50.810;4.394;2023-03-23T10:48:47;5.50;;;1.67;;
23539;SDS011;11947;50.810;4.394;2023-03-23T10:50:46;4.50;;;1.83;;
23539;SDS011;11947;50.810;4.394;2023-03-23T10:53:23;5.13;;;2.20;;
23539;SDS011;11947;50.810;4.394;2023-03-23T10:56:01;8.38;;;2.25;;
23539;SDS011;11947;50.810;4.394;2023-03-23T10:58:28;5.57;;;2.15;;
23539;SDS011;11947;50.810;4.394;2023-03-23T11:00:56;4.22;;;1.90;;
23539;SDS011;11947;50.810;4.394;2023-03-23T11:06:01;4.95;;;1.85;;
23539;SDS011;11947;50.810;4.394;2023-03-23T11:08:38;6.38;;;1.85;;
23539;SDS011;11947;50.810;4.394;2023-03-23T11:11:16;6.40;;;2.00;;
23539;SDS011;11947;50.810;4.394;2023-03-23T11:13:56;8.70;;;2.10;;
23539;SDS011;11947;50.810;4.394;2023-03-23T11:16:30;5.80;;;1.75;;
23539;SDS011;11947;50.810;4.394;2023-03-23T11:18:59;7.03;;;2.13;;
23539;SDS011;11947;50.810;4.394;2023-03-23T11:21:36;3.75;;;1.60;;
23539;SDS011;11947;50.810;4.394;2023-03-23T11:24:03;5.50;;;1.83;;
23539;SDS011;11947;50.810;4.394;2023-03-23T11:26:31;7.57;;;1.80;;
23539;SDS011;11947;50.810;4.394;2023-03-23T11:31:36;5.72;;;1.90;;
23539;SDS011;11947;50.810;4.394;2023-03-23T11:34:09;6.00;;;1.92;;
23539;SDS011;11947;50.810;4.394;2023-03-23T11:36:49;5.68;;;1.75;;
23539;SDS011;11947;50.810;4.394;2023-03-23T11:42:24;5.90;;;1.60;;
23539;SDS011;11947;50.810;4.394;2023-03-23T11:44:53;4.57;;;1.63;;
23539;SDS011;11947;50.810;4.394;2023-03-23T11:47:34;8.18;;;2.03;;
23539;SDS011;11947;50.810;4.394;2023-03-23T11:58:20;3.10;;;1.25;;
23539;SDS011;11947;50.810;4.394;2023-03-23T12:00:56;7.15;;;1.55;;
23539;SDS011;11947;50.810;4.394;2023-03-23T12:03:23;3.63;;;1.23;;
23539;SDS011;11947;50.810;4.394;2023-03-23T12:06:11;4.13;;;1.40;;
23539;SDS011;11947;50.810;4.394;2023-03-23T12:09:01;3.67;;;1.42;;
23539;SDS011;11947;50.810;4.394;2023-03-23T12:17:08;3.38;;;1.50;;
23539;SDS011;11947;50.810;4.394;2023-03-23T12:19:49;3.47;;;1.48;;
23539;SDS011;11947;50.810;4.394;2023-03-23T12:22:58;4.72;;;1.65;;
23539;SDS011;11947;50.810;4.394;2023-03-23T12:28:13;4.55;;;1.48;;
23539;SDS011;11947;50.810;4.394;2023-03-23T12:31:28;3.90;;;1.70;;
23539;SDS011;11947;50.810;4.394;2023-03-23T12:39:02;6.38;;;1.70;;
23539;SDS011;11947;50.810;4.394;2023-03-23T12:41:59;7.53;;;1.95;;
23539;SDS011;11947;50.810;4.394;2023-03-23T12:44:48;6.32;;;1.90;;
23539;SDS011;11947;50.810;4.394;2023-03-23T12:47:34;7.07;;;1.80;;
23539;SDS011;11947;50.810;4.394;2023-03-23T12:50:44;5.63;;;1.77;;
23539;SDS011;11947;50.810;4.394;2023-03-23T12:58:18;7.13;;;2.00;;
23539;SDS011;11947;50.810;4.394;2023-03-23T13:00:59;5.00;;;1.60;;
23539;SDS011;11947;50.810;4.394;2023-03-23T13:06:45;7.68;;;1.90;;
23539;SDS011;11947;50.810;4.394;2023-03-23T13:11:50;6.57;;;1.98;;
23539;SDS011;11947;50.810;4.394;2023-03-23T13:14:29;9.27;;;1.90;;
23539;SDS011;11947;50.810;4.394;2023-03-23T13:26:11;6.47;;;2.20;;
23539;SDS011;11947;50.810;4.394;2023-03-23T13:28:55;5.30;;;1.67;;
23539;SDS011;11947;50.810;4.394;2023-03-23T13:31:26;4.63;;;1.90;;
23539;SDS011;11947;50.810;4.394;2023-03-23T13:34:01;5.93;;;1.85;;
23539;SDS011;11947;50.810;4.394;2023-03-23T13:37:00;4.60;;;1.90;;
23539;SDS011;11947;50.810;4.394;2023-03-23T13:39:50;7.80;;;1.95;;
23539;SDS011;11947;50.810;4.394;2023-03-23T13:42:19;7.82;;;1.55;;
23539;SDS011;11947;50.810;4.394;2023-03-23T13:50:00;6.20;;;2.22;;
23539;SDS011;11947;50.810;4.394;2023-03-23T13:55:17;6.05;;;1.70;;
23539;SDS011;11947;50.810;4.394;2023-03-23T13:57:53;8.48;;;2.30;;
23539;SDS011;11947;50.810;4.394;2023-03-23T14:05:48;7.72;;;1.83;;
23539;SDS011;11947;50.810;4.394;2023-03-23T14:16:04;6.20;;;1.83;;
23539;SDS011;11947;50.810;4.394;2023-03-23T14:18:39;11.27;;;2.20;;
23539;SDS011;11947;50.810;4.394;2023-03-23T14:23:42;8.13;;;1.95;;
23539;SDS011;11947;50.810;4.394;2023-03-23T14:26:15;7.07;;;2.10;;
23539;SDS011;11947;50.810;4.394;2023-03-23T14:28:45;9.70;;;2.70;;
23539;SDS011;11947;50.810;4.394;2023-03-23T14:31:25;7.35;;;2.35;;
23539;SDS011;11947;50.810;4.394;2023-03-23T14:33:52;9.65;;;2.90;;
23539;SDS011;11947;50.810;4.394;2023-03-23T14:36:27;7.93;;;2.22;;
23539;SDS011;11947;50.810;4.394;2023-03-23T14:38:59;8.13;;;2.20;;
23539;SDS011;11947;50.810;4.394;2023-03-23T14:41:44;15.32;;;2.70;;
23539;SDS011;11947;50.810;4.394;2023-03-23T14:44:12;12.02;;;2.50;;
23539;SDS011;11947;50.810;4.394;2023-03-23T14:46:43;7.95;;;2.30;;
23539;SDS011;11947;50.810;4.394;2023-03-23T14:49:10;6.57;;;2.28;;
23539;SDS011;11947;50.810;4.394;2023-03-23T14:51:51;7.80;;;2.30;;
23539;SDS011;11947;50.810;4.394;2023-03-23T14:54:25;6.75;;;2.17;;
23539;SDS011;11947;50.810;4.394;2023-03-23T14:56:52;9.13;;;2.20;;
23539;SDS011;11947;50.810;4.394;2023-03-23T14:59:18;9.23;;;2.30;;
23539;SDS011;11947;50.810;4.394;2023-03-23T15:01:44;9.55;;;2.63;;
23539;SDS011;11947;50.810;4.394;2023-03-23T15:04:14;6.45;;;2.28;;
23539;SDS011;11947;50.810;4.394;2023-03-23T15:06:43;8.15;;;2.42;;
23539;SDS011;11947;50.810;4.394;2023-03-23T15:09:15;6.97;;;2.70;;
23539;SDS011;11947;50.810;4.394;2023-03-23T15:11:55;11.60;;;2.67;;
23539;SDS011;11947;50.810;4.394;2023-03-23T15:14:24;8.50;;;2.10;;
23539;SDS011;11947;50.810;4.394;2023-03-23T15:16:58;5.40;;;2.10;;
23539;SDS011;11947;50.810;4.394;2023-03-23T15:19:32;6.20;;;1.60;;
23539;SDS011;11947;50.810;4.394;2023-03-23T15:22:12;7.18;;;2.05;;
23539;SDS011;11947;50.810;4.394;2023-03-23T15:24:45;7.28;;;2.17;;
23539;SDS011;11947;50.810;4.394;2023-03-23T15:29:52;9.02;;;2.38;;
23539;SDS011;11947;50.810;4.394;2023-03-23T15:32:23;10.13;;;2.65;;
23539;SDS011;11947;50.810;4.394;2023-03-23T15:34:50;8.30;;;2.47;;
23539;SDS011;11947;50.810;4.394;2023-03-23T15:37:19;11.27;;;3.17;;
23539;SDS011;11947;50.810;4.394;2023-03-23T15:39:45;13.52;;;3.00;;
23539;SDS011;11947;50.810;4.394;2023-03-23T15:42:19;12.00;;;3.65;;
23539;SDS011;11947;50.810;4.394;2023-03-23T15:44:54;8.55;;;2.35;;
23539;SDS011;11947;50.810;4.394;2023-03-23T15:50:10;8.05;;;2.22;;
23539;SDS011;11947;50.810;4.394;2023-03-23T15:52:40;8.10;;;2.65;;
23539;SDS011;11947;50.810;4.394;2023-03-23T15:57:52;7.88;;;2.70;;
23539;SDS011;11947;50.810;4.394;2023-03-23T16:00:19;8.18;;;2.83;;
23539;SDS011;11947;50.810;4.394;2023-03-23T16:02:48;8.75;;;3.22;;
23539;SDS011;11947;50.810;4.394;2023-03-23T16:05:25;9.93;;;2.53;;
23539;SDS011;11947;50.810;4.394;2023-03-23T16:07:52;7.95;;;2.67;;
23539;SDS011;11947;50.810;4.394;2023-03-23T16:10:19;9.60;;;2.65;;
23539;SDS011;11947;50.810;4.394;2023-03-23T16:12:46;8.25;;;2.28;;
23539;SDS011;11947;50.810;4.394;2023-03-23T16:15:12;10.48;;;2.88;;
23539;SDS011;11947;50.810;4.394;2023-03-23T16:17:38;7.65;;;2.45;;
23539;SDS011;11947;50.810;4.394;2023-03-23T16:20:08;6.50;;;2.58;;
23539;SDS011;11947;50.810;4.394;2023-03-23T16:22:46;8.82;;;2.40;;
23539;SDS011;11947;50.810;4.394;2023-03-23T16:25:13;10.30;;;2.55;;
23539;SDS011;11947;50.810;4.394;2023-03-23T16:27:39;8.40;;;2.80;;
23539;SDS011;11947;50.810;4.394;2023-03-23T16:30:12;8.68;;;2.55;;
23539;SDS011;11947;50.810;4.394;2023-03-23T16:32:40;8.23;;;2.38;;
23539;SDS011;11947;50.810;4.394;2023-03-23T16:35:06;6.75;;;2.30;;
23539;SDS011;11947;50.810;4.394;2023-03-23T16:37:32;6.60;;;2.08;;
23539;SDS011;11947;50.810;4.394;2023-03-23T16:39:59;10.07;;;2.40;;
23539;SDS011;11947;50.810;4.394;2023-03-23T16:42:25;9.00;;;2.65;;
23539;SDS011;11947;50.810;4.394;2023-03-23T16:44:51;8.65;;;2.83;;
23539;SDS011;11947;50.810;4.394;2023-03-23T16:47:18;8.18;;;2.28;;
23539;SDS011;11947;50.810;4.394;2023-03-23T16:49:47;9.48;;;2.35;;
23539;SDS011;11947;50.810;4.394;2023-03-23T16:52:13;7.03;;;2.35;;
23539;SDS011;11947;50.810;4.394;2023-03-23T16:54:38;6.05;;;2.20;;
23539;SDS011;11947;50.810;4.394;2023-03-23T16:57:04;10.95;;;2.35;;
23539;SDS011;11947;50.810;4.394;2023-03-23T16:59:30;8.98;;;2.40;;
23539;SDS011;11947;50.810;4.394;2023-03-23T17:01:56;8.32;;;2.20;;
23539;SDS011;11947;50.810;4.394;2023-03-23T17:04:27;8.30;;;2.38;;
23539;SDS011;11947;50.810;4.394;2023-03-23T17:06:56;6.95;;;2.08;;
23539;SDS011;11947;50.810;4.394;2023-03-23T17:09:25;8.73;;;2.25;;
23539;SDS011;11947;50.810;4.394;2023-03-23T17:11:51;7.00;;;2.08;;